Time;durP1;ratioP1;P1;durP2;ratioP2;P2;SDS_P1;SDS_P2;PMS_P1;PMS_P2;Temp;Humidity;BMP_temperature;BMP_pressure;BME280_temperature;BME280_humidity;BME280_pressure;Samples;Min_cycle;Max_cycle;Signal;HPM_P1;HPM_P2
2023/05/11 00:00:34;;;;;;;33.58;25.50;;;13.30;99.90;;;;;;5004627;28;20172;-57
2023/05/11 00:03:00;;;;;;;32.10;24.88;;;13.30;99.90;;;;;;5007574;28;20069;-57
2023/05/11 00:05:25;;;;;;;30.50;24.75;;;13.30;99.90;;;;;;5004686;28;20042;-56
2023/05/11 00:07:51;;;;;;;30.83;24.77;;;13.40;99.90;;;;;;5006334;28;20041;-57
2023/05/11 00:10:16;;;;;;;36.08;27.48;;;13.40;99.90;;;;;;5002080;28;20034;-57
2023/05/11 00:12:42;;;;;;;36.03;27.55;;;13.40;99.90;;;;;;5000430;28;20037;-57
2023/05/11 00:15:08;;;;;;;37.28;27.92;;;13.30;99.90;;;;;;5002568;28;20037;-56
2023/05/11 00:17:33;;;;;;;39.83;28.48;;;13.40;99.90;;;;;;4999957;28;20445;-57
2023/05/11 00:19:59;;;;;;;36.67;25.95;;;13.40;99.90;;;;;;5000417;28;20030;-57
2023/05/11 00:22:25;;;;;;;35.70;27.98;;;13.40;99.90;;;;;;5006806;28;20412;-56
2023/05/11 00:24:50;;;;;;;38.80;28.08;;;13.50;99.90;;;;;;5000321;28;20034;-57
2023/05/11 00:27:16;;;;;;;36.35;27.20;;;13.40;99.90;;;;;;5002306;28;20411;-57
2023/05/11 00:29:41;;;;;;;36.45;27.00;;;13.30;99.90;;;;;;4997994;28;20596;-57
2023/05/11 00:32:07;;;;;;;37.53;27.05;;;13.20;99.90;;;;;;5003555;28;20049;-57
2023/05/11 00:34:33;;;;;;;36.92;27.55;;;13.20;99.90;;;;;;4999896;28;20030;-57
2023/05/11 00:36:58;;;;;;;31.88;26.35;;;12.00;99.90;;;;;;4988167;28;20113;-57
2023/05/11 00:39:24;;;;;;;34.33;27.17;;;13.20;99.90;;;;;;4987164;28;20049;-57
2023/05/11 00:41:49;;;;;;;33.63;25.48;;;13.40;99.90;;;;;;5006910;28;20103;-57
2023/05/11 00:44:15;;;;;;;38.80;27.10;;;13.50;99.90;;;;;;4998772;28;20034;-56
2023/05/11 00:46:41;;;;;;;33.97;26.58;;;13.50;99.90;;;;;;5006433;28;20064;-57
2023/05/11 00:49:08;;;;;;;38.55;27.77;;;13.50;99.90;;;;;;5000969;28;20041;-57
2023/05/11 00:51:34;;;;;;;37.35;27.85;;;13.70;99.90;;;;;;5001490;28;20263;-57
2023/05/11 00:54:01;;;;;;;38.17;29.45;;;13.90;99.90;;;;;;5009742;28;20497;-56
2023/05/11 00:56:27;;;;;;;38.60;28.95;;;13.90;99.90;;;;;;5002711;28;20038;-57
2023/05/11 00:58:52;;;;;;;40.00;29.30;;;13.70;99.90;;;;;;5008338;28;20532;-57
2023/05/11 01:01:18;;;;;;;41.00;29.25;;;13.80;99.90;;;;;;5003450;28;20048;-57
2023/05/11 01:03:45;;;;;;;39.88;27.50;;;13.80;99.90;;;;;;5003011;28;20036;-57
2023/05/11 01:06:17;;;;;;;37.67;28.15;;;13.70;99.90;;;;;;5006783;28;20216;-56
2023/05/11 01:08:49;;;;;;;36.33;27.05;;;13.80;99.90;;;;;;5003435;28;20057;-56
2023/05/11 01:11:32;;;;;;;41.88;29.33;;;13.80;99.90;;;;;;5010523;28;20041;-56
2023/05/11 01:14:07;;;;;;;35.13;26.58;;;13.80;99.90;;;;;;4981393;28;20128;-56
2023/05/11 01:16:39;;;;;;;36.83;27.60;;;13.70;99.90;;;;;;5000449;28;20041;-57
2023/05/11 01:19:19;;;;;;;36.05;27.17;;;13.80;99.90;;;;;;4982572;28;20029;-57
2023/05/11 01:21:49;;;;;;;36.33;26.33;;;13.70;99.90;;;;;;5011997;28;20625;-57
2023/05/11 01:24:33;;;;;;;34.90;26.13;;;13.60;99.90;;;;;;5010873;28;20032;-57
2023/05/11 01:27:06;;;;;;;36.10;25.23;;;13.50;99.90;;;;;;5010791;28;20026;-57
2023/05/11 01:30:05;;;;;;;34.95;25.20;;;13.50;99.90;;;;;;5003432;28;20513;-56
2023/05/11 01:32:35;;;;;;;40.55;25.17;;;13.60;99.90;;;;;;5005052;28;20458;-57
2023/05/11 01:35:13;;;;;;;36.47;25.70;;;13.70;99.90;;;;;;5002089;28;20033;-57
2023/05/11 01:37:44;;;;;;;32.97;23.23;;;13.70;99.90;;;;;;5007671;28;20042;-57
2023/05/11 01:40:14;;;;;;;32.80;23.13;;;13.70;99.90;;;;;;5011513;28;20508;-56
2023/05/11 01:42:44;;;;;;;33.00;24.52;;;13.60;99.90;;;;;;5007811;28;20541;-57
2023/05/11 01:45:11;;;;;;;33.55;23.90;;;13.60;99.90;;;;;;5005516;28;20045;-56
2023/05/11 01:47:40;;;;;;;33.15;25.55;;;13.60;99.90;;;;;;5006224;28;20051;-56
2023/05/11 01:50:07;;;;;;;34.95;25.17;;;13.70;99.90;;;;;;5009649;28;20045;-57
2023/05/11 01:52:36;;;;;;;34.95;25.83;;;13.80;99.90;;;;;;5008101;28;20410;-56
2023/05/11 01:55:04;;;;;;;34.25;24.52;;;13.80;99.90;;;;;;5008517;28;20025;-56
2023/05/11 01:57:30;;;;;;;35.20;24.92;;;13.90;99.90;;;;;;4998021;28;20510;-57
2023/05/11 01:59:56;;;;;;;35.22;25.27;;;13.90;99.90;;;;;;5002234;28;20107;-56
2023/05/11 02:02:24;;;;;;;37.85;25.48;;;13.80;99.90;;;;;;5005057;28;20756;-57
2023/05/11 02:04:50;;;;;;;36.35;26.05;;;13.90;99.90;;;;;;5008018;28;20034;-57
2023/05/11 02:07:17;;;;;;;37.80;26.05;;;13.80;99.90;;;;;;5007129;28;20117;-57
2023/05/11 02:09:44;;;;;;;39.53;28.38;;;13.80;99.90;;;;;;5010697;28;20128;-57
2023/05/11 02:12:11;;;;;;;40.22;27.33;;;13.50;99.90;;;;;;5010028;28;20045;-57
2023/05/11 02:14:38;;;;;;;40.45;27.77;;;13.40;99.90;;;;;;5003964;28;20137;-56
2023/05/11 02:17:05;;;;;;;38.78;28.00;;;13.60;99.90;;;;;;5003465;28;20037;-56
2023/05/11 02:19:33;;;;;;;40.67;29.05;;;13.60;99.90;;;;;;5008988;28;20034;-56
2023/05/11 02:21:59;;;;;;;44.30;28.88;;;13.50;99.90;;;;;;5007547;28;20034;-56
2023/05/11 02:24:27;;;;;;;43.58;29.40;;;13.60;99.90;;;;;;5010081;28;20494;-56
2023/05/11 02:26:53;;;;;;;43.08;28.05;;;13.70;99.90;;;;;;5009412;28;20109;-56
2023/05/11 02:29:19;;;;;;;40.20;29.35;;;13.70;99.90;;;;;;5003946;28;20331;-56
2023/05/11 02:31:48;;;;;;;41.50;29.23;;;13.60;99.90;;;;;;5014289;28;20030;-56
2023/05/11 02:34:37;;;;;;;37.33;28.08;;;13.60;99.90;;;;;;5011984;28;20262;-57
2023/05/11 02:37:08;;;;;;;40.88;27.90;;;13.60;99.90;;;;;;5005829;28;20041;-56
2023/05/11 02:39:35;;;;;;;39.85;26.40;;;13.60;99.90;;;;;;5004997;28;20045;-56
2023/05/11 02:42:16;;;;;;;40.83;27.63;;;13.40;99.90;;;;;;5004879;28;20049;-56
2023/05/11 02:44:49;;;;;;;38.60;26.50;;;13.40;99.90;;;;;;5004376;28;20034;-56
2023/05/11 02:47:16;;;;;;;40.33;27.48;;;13.30;99.90;;;;;;5013133;28;20041;-57
2023/05/11 02:49:44;;;;;;;43.05;29.33;;;13.20;99.90;;;;;;5003001;28;20037;-56
2023/05/11 02:52:12;;;;;;;43.13;27.67;;;13.10;99.90;;;;;;5005305;28;20088;-56
2023/05/11 02:54:39;;;;;;;40.35;27.90;;;13.20;99.90;;;;;;5010275;28;20034;-56
2023/05/11 02:57:04;;;;;;;39.90;27.45;;;13.10;99.90;;;;;;5009148;28;20036;-56
2023/05/11 02:59:31;;;;;;;43.97;27.25;;;13.10;99.90;;;;;;5008905;28;20033;-56
2023/05/11 03:01:58;;;;;;;45.72;29.38;;;13.10;99.90;;;;;;5012781;28;20041;-56
2023/05/11 03:04:24;;;;;;;47.08;30.88;;;13.30;99.90;;;;;;5001777;28;20045;-57
2023/05/11 03:06:50;;;;;;;43.83;29.88;;;13.30;99.90;;;;;;5002958;28;20041;-56
2023/05/11 03:09:15;;;;;;;51.10;31.45;;;13.20;99.90;;;;;;5007760;28;20152;-56
2023/05/11 03:11:42;;;;;;;50.08;31.77;;;13.20;99.90;;;;;;5003981;28;20061;-56
2023/05/11 03:14:08;;;;;;;45.10;29.83;;;13.20;99.90;;;;;;5000071;28;21432;-56
2023/05/11 03:16:34;;;;;;;47.47;31.13;;;13.20;99.90;;;;;;5008851;28;20056;-56
2023/05/11 03:19:01;;;;;;;43.38;28.77;;;12.90;99.90;;;;;;5005879;28;20459;-56
2023/05/11 03:21:27;;;;;;;46.50;29.77;;;12.90;99.90;;;;;;5000517;28;20095;-55
2023/05/11 03:23:53;;;;;;;45.50;29.85;;;12.70;99.90;;;;;;5009537;28;20033;-56
2023/05/11 03:26:20;;;;;;;48.53;30.90;;;12.90;99.90;;;;;;5005310;28;20030;-56
2023/05/11 03:28:47;;;;;;;47.83;31.13;;;13.10;99.90;;;;;;5009802;28;20665;-56
2023/05/11 03:31:13;;;;;;;49.60;30.58;;;13.10;99.90;;;;;;5003448;28;20030;-56
2023/05/11 03:33:39;;;;;;;50.80;32.42;;;13.10;99.90;;;;;;5002314;28;20041;-56
2023/05/11 03:36:05;;;;;;;50.60;32.90;;;12.90;99.90;;;;;;5007713;28;20033;-56
2023/05/11 03:38:33;;;;;;;49.35;31.75;;;12.80;99.90;;;;;;5010558;28;20549;-56
2023/05/11 03:41:00;;;;;;;50.55;32.35;;;12.80;99.90;;;;;;5003958;28;20517;-55
2023/05/11 03:43:28;;;;;;;49.72;32.22;;;12.80;99.90;;;;;;5004694;28;20049;-56
2023/05/11 03:45:56;;;;;;;54.60;34.17;;;12.90;99.90;;;;;;5001838;28;20033;-56
2023/05/11 03:48:22;;;;;;;57.65;34.58;;;12.90;99.90;;;;;;5011584;28;20037;-56
2023/05/11 03:50:48;;;;;;;56.35;33.88;;;13.00;99.90;;;;;;5002871;28;20532;-56
2023/05/11 03:53:15;;;;;;;53.00;32.80;;;13.10;99.90;;;;;;5002183;28;20080;-56
2023/05/11 03:55:41;;;;;;;57.53;34.08;;;13.20;99.90;;;;;;5007655;28;20450;-56
2023/05/11 03:58:10;;;;;;;54.15;33.28;;;13.20;99.90;;;;;;4999256;28;20057;-56
2023/05/11 04:00:40;;;;;;;61.47;35.53;;;13.10;99.90;;;;;;5009466;28;20045;-56
2023/05/11 04:03:06;;;;;;;52.97;34.33;;;13.00;99.90;;;;;;5006439;28;20046;-56
2023/05/11 04:05:32;;;;;;;59.90;34.63;;;13.00;99.90;;;;;;5008360;28;20401;-56
2023/05/11 04:07:58;;;;;;;51.05;33.25;;;13.00;99.90;;;;;;5003090;28;20608;-57
2023/05/11 04:10:23;;;;;;;56.03;34.90;;;13.00;99.90;;;;;;4992324;28;20044;-58
2023/05/11 04:12:49;;;;;;;53.83;32.97;;;13.00;99.90;;;;;;5002419;28;20561;-56
2023/05/11 04:15:14;;;;;;;52.35;32.08;;;13.00;99.90;;;;;;5009310;28;20253;-56
2023/05/11 04:17:40;;;;;;;53.42;33.33;;;12.90;99.90;;;;;;5012343;28;20045;-56
2023/05/11 04:20:06;;;;;;;56.30;33.95;;;13.00;99.90;;;;;;5008455;28;20639;-56
2023/05/11 04:22:32;;;;;;;50.30;31.30;;;13.00;99.90;;;;;;5011361;28;20160;-56
2023/05/11 04:24:57;;;;;;;48.90;31.67;;;13.00;99.90;;;;;;5015606;28;20037;-56
2023/05/11 04:27:23;;;;;;;51.92;31.92;;;13.00;99.90;;;;;;5010830;28;20033;-56
2023/05/11 04:29:49;;;;;;;52.35;32.25;;;13.00;99.90;;;;;;4996892;28;20042;-56
2023/05/11 04:32:15;;;;;;;52.10;32.90;;;13.00;99.90;;;;;;5015675;28;20085;-56
2023/05/11 04:34:41;;;;;;;54.15;33.47;;;13.10;99.90;;;;;;5008709;28;20134;-56
2023/05/11 04:37:06;;;;;;;54.17;33.72;;;13.10;99.90;;;;;;4995663;28;20680;-57
2023/05/11 04:39:33;;;;;;;56.67;35.17;;;13.10;99.90;;;;;;4988577;28;20033;-56
2023/05/11 04:41:59;;;;;;;57.00;35.80;;;13.10;99.90;;;;;;5011396;28;20057;-56
2023/05/11 04:44:25;;;;;;;54.95;34.53;;;13.30;99.90;;;;;;5003233;28;20124;-56
2023/05/11 04:46:54;;;;;;;58.50;34.47;;;13.30;99.90;;;;;;5006489;28;20054;-55
2023/05/11 04:49:19;;;;;;;54.78;34.63;;;13.20;99.90;;;;;;5002616;28;20026;-55
2023/05/11 04:51:45;;;;;;;54.60;34.38;;;13.30;99.90;;;;;;4996552;28;20048;-55
2023/05/11 04:54:10;;;;;;;57.58;35.30;;;13.30;99.90;;;;;;5005539;28;20041;-56
2023/05/11 04:56:39;;;;;;;51.75;34.28;;;13.20;99.90;;;;;;5003036;28;20129;-55
2023/05/11 04:59:08;;;;;;;62.97;37.03;;;13.30;99.90;;;;;;5009546;28;20029;-55
2023/05/11 05:01:34;;;;;;;58.28;36.33;;;13.50;99.90;;;;;;5006332;28;20041;-55
2023/05/11 05:03:59;;;;;;;61.67;37.67;;;13.60;99.90;;;;;;5002510;28;20030;-55
2023/05/11 05:06:25;;;;;;;64.50;39.30;;;13.60;99.90;;;;;;4974043;28;20124;-55
2023/05/11 05:08:50;;;;;;;63.65;38.22;;;13.60;99.90;;;;;;5002551;28;20350;-55
2023/05/11 05:11:16;;;;;;;58.05;36.40;;;13.50;99.90;;;;;;5000335;28;20040;-56
2023/05/11 05:13:42;;;;;;;58.85;36.63;;;13.50;99.90;;;;;;5004287;28;20030;-55
2023/05/11 05:16:08;;;;;;;69.57;41.05;;;13.50;99.90;;;;;;5009133;28;20068;-55
2023/05/11 05:18:33;;;;;;;64.22;39.50;;;13.60;99.90;;;;;;5001921;28;20067;-55
2023/05/11 05:20:59;;;;;;;65.72;38.90;;;13.50;99.90;;;;;;5006405;28;20133;-55
2023/05/11 05:23:25;;;;;;;73.00;40.70;;;13.40;99.90;;;;;;5001706;28;20375;-56
2023/05/11 05:25:50;;;;;;;64.28;39.58;;;13.30;99.90;;;;;;5008336;28;20038;-55
2023/05/11 05:28:16;;;;;;;66.97;39.65;;;13.30;99.90;;;;;;5000690;28;20069;-57
2023/05/11 05:30:42;;;;;;;64.18;39.13;;;13.60;99.90;;;;;;5005236;28;20034;-55
2023/05/11 05:33:07;;;;;;;77.80;42.35;;;13.50;99.90;;;;;;5007105;28;20041;-56
2023/05/11 05:35:33;;;;;;;71.63;39.83;;;13.60;99.90;;;;;;5011726;28;20428;-55
2023/05/11 05:37:58;;;;;;;68.53;39.47;;;13.50;99.90;;;;;;5007836;28;20494;-55
2023/05/11 05:40:24;;;;;;;73.07;41.80;;;13.60;99.90;;;;;;5007831;28;20046;-55
2023/05/11 05:42:49;;;;;;;64.55;38.80;;;13.70;99.90;;;;;;5007831;28;20053;-55
2023/05/11 05:45:16;;;;;;;70.93;39.92;;;13.70;99.90;;;;;;5009823;28;20061;-55
2023/05/11 05:47:41;;;;;;;68.03;39.67;;;13.70;99.90;;;;;;5013340;28;20029;-55
2023/05/11 05:50:07;;;;;;;71.95;41.30;;;13.90;99.90;;;;;;5004611;28;20446;-55
2023/05/11 05:52:33;;;;;;;74.25;40.22;;;13.80;99.90;;;;;;5014910;28;20121;-55
2023/05/11 05:54:58;;;;;;;73.80;41.38;;;13.90;99.90;;;;;;4983242;28;20050;-55
2023/05/11 05:57:24;;;;;;;79.07;41.45;;;13.90;99.90;;;;;;5008722;28;20057;-55
2023/05/11 05:59:50;;;;;;;71.47;41.38;;;14.00;99.90;;;;;;5005042;28;20688;-55
2023/05/11 06:02:16;;;;;;;69.55;40.90;;;13.90;99.90;;;;;;5004207;28;20125;-56
2023/05/11 06:04:41;;;;;;;70.95;39.88;;;13.90;99.90;;;;;;5015964;28;20029;-55
2023/05/11 06:07:07;;;;;;;76.68;42.38;;;13.90;99.90;;;;;;5012983;28;20064;-55
2023/05/11 06:09:33;;;;;;;74.88;42.25;;;14.10;99.90;;;;;;5009236;28;20060;-55
2023/05/11 06:11:58;;;;;;;74.28;42.13;;;14.20;99.90;;;;;;5000337;28;20117;-56
2023/05/11 06:14:24;;;;;;;80.38;43.45;;;14.30;99.90;;;;;;5002322;28;20061;-55
2023/05/11 06:16:50;;;;;;;74.97;42.15;;;14.10;99.90;;;;;;5008278;28;20309;-55
2023/05/11 06:19:15;;;;;;;77.60;42.05;;;14.10;99.90;;;;;;5006853;28;20033;-56
2023/05/11 06:21:42;;;;;;;81.85;43.45;;;14.30;99.90;;;;;;4997429;28;20062;-55
2023/05/11 06:24:08;;;;;;;72.35;41.75;;;14.40;99.90;;;;;;5012383;28;20034;-55
2023/05/11 06:26:33;;;;;;;71.10;40.75;;;14.00;99.90;;;;;;5013028;28;20034;-55
2023/05/11 06:28:59;;;;;;;73.88;41.03;;;14.20;99.90;;;;;;5003427;28;20026;-56
2023/05/11 06:31:25;;;;;;;69.75;39.22;;;14.30;99.90;;;;;;4992047;28;20479;-56
2023/05/11 06:33:51;;;;;;;72.90;41.78;;;14.50;99.90;;;;;;5015700;28;20034;-55
2023/05/11 06:36:16;;;;;;;77.28;40.65;;;14.50;99.90;;;;;;5001979;28;20034;-56
2023/05/11 06:38:42;;;;;;;70.95;40.22;;;14.50;99.90;;;;;;4998444;28;20168;-56
2023/05/11 06:41:10;;;;;;;68.25;38.95;;;14.50;99.90;;;;;;5006415;28;20053;-55
2023/05/11 06:43:36;;;;;;;69.43;39.97;;;14.50;99.90;;;;;;5005683;28;21035;-55
2023/05/11 06:46:02;;;;;;;61.85;38.17;;;14.50;99.90;;;;;;4998316;28;20037;-56
2023/05/11 06:48:28;;;;;;;65.30;38.83;;;14.40;99.90;;;;;;5009524;28;20041;-56
2023/05/11 06:50:54;;;;;;;65.43;38.13;;;14.50;99.90;;;;;;5007748;28;20040;-56
2023/05/11 06:53:20;;;;;;;61.15;36.55;;;14.70;99.90;;;;;;5013282;28;20029;-56
2023/05/11 06:55:46;;;;;;;56.97;33.95;;;14.70;99.90;;;;;;5000583;28;20428;-56
2023/05/11 06:58:12;;;;;;;53.03;33.05;;;14.70;99.90;;;;;;5004986;28;20069;-56
2023/05/11 07:00:37;;;;;;;54.63;34.13;;;14.80;99.90;;;;;;5011196;28;20133;-56
2023/05/11 07:03:03;;;;;;;58.35;34.20;;;15.00;99.90;;;;;;5009369;28;20037;-56
2023/05/11 07:05:30;;;;;;;54.67;34.22;;;14.90;99.90;;;;;;5007727;28;20096;-56
2023/05/11 07:07:55;;;;;;;51.47;32.78;;;14.90;99.90;;;;;;5009481;28;20045;-56
2023/05/11 07:10:21;;;;;;;53.95;32.55;;;15.00;99.90;;;;;;5005211;28;20351;-56
2023/05/11 07:12:46;;;;;;;54.22;33.50;;;15.00;99.90;;;;;;5008304;28;20042;-57
2023/05/11 07:15:12;;;;;;;56.05;33.35;;;15.20;99.90;;;;;;5006391;28;20119;-56
2023/05/11 07:17:38;;;;;;;54.90;34.15;;;15.40;99.90;;;;;;4997395;28;20501;-56
2023/05/11 07:20:04;;;;;;;58.03;35.78;;;15.40;99.90;;;;;;5007514;28;20515;-56
2023/05/11 07:22:29;;;;;;;48.75;30.85;;;15.40;99.90;;;;;;4977603;28;20041;-56
2023/05/11 07:24:55;;;;;;;50.17;31.25;;;14.80;99.90;;;;;;5001082;28;20044;-56
2023/05/11 07:27:20;;;;;;;44.58;30.17;;;14.80;99.90;;;;;;4994870;28;20030;-57
2023/05/11 07:29:46;;;;;;;48.38;29.98;;;15.00;99.90;;;;;;5000930;28;20119;-56
2023/05/11 07:32:12;;;;;;;52.90;31.42;;;15.20;99.90;;;;;;5006692;28;20048;-56
2023/05/11 07:34:38;;;;;;;59.95;35.58;;;15.40;99.90;;;;;;5008510;28;20044;-57
2023/05/11 07:37:03;;;;;;;63.45;39.22;;;15.60;99.90;;;;;;4991834;28;20046;-57
2023/05/11 07:39:29;;;;;;;68.07;40.05;;;15.60;99.90;;;;;;4981758;28;20128;-56
2023/05/11 07:41:54;;;;;;;67.53;39.00;;;15.50;99.90;;;;;;4992898;28;20120;-57
2023/05/11 07:44:20;;;;;;;61.25;38.47;;;15.50;99.90;;;;;;4992140;28;20068;-56
2023/05/11 07:46:45;;;;;;;64.60;38.50;;;15.40;99.90;;;;;;5001226;28;20049;-56
2023/05/11 07:49:11;;;;;;;56.88;37.50;;;15.40;99.90;;;;;;4985009;28;20030;-57
2023/05/11 07:51:37;;;;;;;59.30;37.42;;;15.30;99.90;;;;;;5002880;28;20026;-56
2023/05/11 07:54:03;;;;;;;60.58;37.25;;;15.30;99.90;;;;;;5003808;28;20136;-57
2023/05/11 07:56:28;;;;;;;54.95;36.05;;;15.10;99.90;;;;;;4998864;28;20060;-57
2023/05/11 07:58:54;;;;;;;58.30;37.70;;;15.20;99.90;;;;;;4989064;28;20034;-57
2023/05/11 08:01:20;;;;;;;55.63;36.88;;;15.30;99.90;;;;;;5000718;28;20431;-56
2023/05/11 08:03:46;;;;;;;55.97;36.90;;;15.40;99.90;;;;;;5001877;28;20052;-57
2023/05/11 08:06:12;;;;;;;58.95;37.00;;;15.40;99.90;;;;;;5000500;28;20059;-56
2023/05/11 08:08:37;;;;;;;57.58;35.42;;;15.40;99.90;;;;;;5000912;28;20041;-57
2023/05/11 08:11:04;;;;;;;51.72;35.20;;;15.40;99.90;;;;;;5002818;28;20073;-57
2023/05/11 08:13:30;;;;;;;56.65;35.33;;;15.40;99.90;;;;;;5001351;28;20702;-56
2023/05/11 08:15:56;;;;;;;50.75;33.90;;;15.40;99.90;;;;;;5006129;28;20068;-57
2023/05/11 08:18:21;;;;;;;54.95;34.03;;;15.40;99.90;;;;;;4982304;28;20042;-57
2023/05/11 08:20:47;;;;;;;48.63;33.03;;;15.20;99.90;;;;;;5004420;28;20500;-57
2023/05/11 08:23:16;;;;;;;53.88;33.88;;;15.30;99.90;;;;;;4992009;28;20124;-57
2023/05/11 08:25:48;;;;;;;60.83;38.42;;;15.20;99.90;;;;;;5002443;28;20065;-57
2023/05/11 08:28:14;;;;;;;54.63;34.40;;;15.30;99.90;;;;;;5002669;28;20030;-57
2023/05/11 08:30:39;;;;;;;54.40;34.13;;;15.20;99.90;;;;;;5003919;28;20687;-56
2023/05/11 08:33:05;;;;;;;54.67;33.85;;;15.20;99.90;;;;;;5007848;28;20137;-56
2023/05/11 08:35:30;;;;;;;58.72;34.97;;;15.20;99.90;;;;;;5002084;28;20053;-56
2023/05/11 08:37:56;;;;;;;59.40;34.25;;;15.40;99.90;;;;;;4998864;28;20049;-56
2023/05/11 08:40:25;;;;;;;53.08;33.67;;;15.50;99.90;;;;;;4999088;28;20457;-57
2023/05/11 08:42:53;;;;;;;58.35;35.83;;;15.50;99.90;;;;;;5001430;28;20061;-57
2023/05/11 08:45:20;;;;;;;61.30;35.95;;;15.40;99.90;;;;;;4995684;28;20048;-57
2023/05/11 08:47:47;;;;;;;56.40;34.78;;;15.50;99.90;;;;;;4995510;28;20065;-57
2023/05/11 08:50:12;;;;;;;56.25;36.30;;;15.30;99.90;;;;;;5001250;28;20064;-57
2023/05/11 08:52:39;;;;;;;58.53;37.30;;;15.30;99.90;;;;;;5003095;28;20073;-57
2023/05/11 08:55:06;;;;;;;61.13;37.80;;;15.30;99.90;;;;;;5010180;28;20034;-56
2023/05/11 08:57:33;;;;;;;59.75;36.33;;;15.20;99.90;;;;;;5001939;28;20392;-56
2023/05/11 09:00:01;;;;;;;54.47;35.45;;;15.10;99.90;;;;;;5004527;28;20096;-56
2023/05/11 09:02:27;;;;;;;59.53;37.55;;;15.20;99.90;;;;;;5003644;28;20037;-56
2023/05/11 09:04:53;;;;;;;59.92;37.03;;;15.30;99.90;;;;;;5001570;28;20377;-56
2023/05/11 09:07:20;;;;;;;59.75;37.17;;;15.20;99.90;;;;;;5007001;28;20045;-57
2023/05/11 09:09:46;;;;;;;58.33;36.65;;;15.10;99.90;;;;;;5006592;28;20037;-56
2023/05/11 09:12:13;;;;;;;59.47;36.38;;;15.10;99.90;;;;;;5002418;28;20721;-57
2023/05/11 09:14:38;;;;;;;61.03;36.97;;;15.20;99.90;;;;;;5002344;28;20069;-56
2023/05/11 09:17:05;;;;;;;59.03;37.97;;;15.30;99.90;;;;;;5002380;28;20031;-57
2023/05/11 09:19:30;;;;;;;57.70;38.10;;;15.30;99.90;;;;;;5006995;28;20037;-57
2023/05/11 09:21:58;;;;;;;59.33;36.38;;;15.40;99.90;;;;;;4998610;28;20034;-56
2023/05/11 09:24:24;;;;;;;60.65;36.83;;;15.40;99.90;;;;;;5001453;28;20061;-57
2023/05/11 09:27:06;;;;;;;60.13;36.70;;;15.40;99.90;;;;;;5005288;28;20462;-57
2023/05/11 09:29:32;;;;;;;55.15;35.42;;;15.40;99.90;;;;;;5001372;28;20030;-56
2023/05/11 09:31:58;;;;;;;54.38;34.65;;;15.30;99.90;;;;;;5004234;28;20044;-56
2023/05/11 09:34:23;;;;;;;48.25;33.63;;;15.10;99.90;;;;;;4995418;28;20030;-56
2023/05/11 09:36:51;;;;;;;57.28;36.15;;;15.10;99.90;;;;;;4996981;28;20133;-57
2023/05/11 09:39:19;;;;;;;54.97;34.05;;;15.10;99.90;;;;;;5008364;28;20052;-56
2023/05/11 09:41:45;;;;;;;54.47;34.38;;;15.00;99.90;;;;;;4979098;28;20418;-56
2023/05/11 09:44:15;;;;;;;53.47;33.72;;;15.00;99.90;;;;;;5006195;28;20034;-57
2023/05/11 09:46:43;;;;;;;57.00;34.00;;;15.30;99.90;;;;;;5004111;28;20038;-56
2023/05/11 09:49:09;;;;;;;54.25;33.33;;;14.80;99.90;;;;;;5007170;28;20707;-57
2023/05/11 09:51:37;;;;;;;55.55;32.92;;;15.40;99.90;;;;;;5003771;28;20038;-61
2023/05/11 09:54:17;;;;;;;51.63;32.90;;;15.60;99.90;;;;;;5007240;28;20531;-61
2023/05/11 09:56:48;;;;;;;55.80;33.25;;;15.70;99.90;;;;;;5003357;28;20029;-62
2023/05/11 09:59:35;;;;;;;56.22;34.10;;;15.70;99.90;;;;;;5004890;28;20034;-62
2023/05/11 10:02:17;;;;;;;53.40;33.40;;;15.90;99.90;;;;;;5007072;28;20514;-62
2023/05/11 10:04:42;;;;;;;57.50;34.97;;;15.80;99.90;;;;;;4993580;28;20176;-62
2023/05/11 10:07:08;;;;;;;56.47;35.00;;;15.70;99.90;;;;;;5006154;28;20125;-62
2023/05/11 10:09:34;;;;;;;53.15;32.88;;;15.50;99.90;;;;;;5004397;28;20664;-62
2023/05/11 10:12:01;;;;;;;54.92;34.10;;;15.30;99.90;;;;;;4984659;28;20120;-62
2023/05/11 10:14:28;;;;;;;51.17;34.22;;;15.40;99.90;;;;;;5005835;28;20625;-62
2023/05/11 10:16:57;;;;;;;53.85;32.95;;;15.30;99.90;;;;;;5007252;28;20033;-62
2023/05/11 10:19:22;;;;;;;56.17;34.15;;;15.50;99.90;;;;;;5001968;28;20026;-62
2023/05/11 10:21:51;;;;;;;54.65;34.28;;;15.70;99.90;;;;;;4983338;28;20513;-63
2023/05/11 10:24:17;;;;;;;53.42;33.70;;;15.50;99.90;;;;;;5001277;28;20136;-62
2023/05/11 10:26:44;;;;;;;56.85;36.35;;;15.50;99.90;;;;;;4995327;28;20038;-62
2023/05/11 10:29:10;;;;;;;75.00;45.53;;;15.70;99.90;;;;;;4990768;28;20375;-60
2023/05/11 10:31:36;;;;;;;59.50;36.80;;;16.00;99.90;;;;;;4995153;28;20220;-61
2023/05/11 10:34:03;;;;;;;59.30;37.92;;;16.00;99.90;;;;;;4974991;28;20121;-59
2023/05/11 10:36:29;;;;;;;57.47;37.78;;;15.90;99.90;;;;;;4987661;28;20034;-61
2023/05/11 10:38:55;;;;;;;61.47;38.67;;;16.10;99.90;;;;;;5002938;28;20088;-60
2023/05/11 10:42:00;;;;;;;64.13;38.20;;;16.10;99.90;;;;;;5001969;28;20511;-61
2023/05/11 10:44:46;;;;;;;61.33;38.00;;;16.20;99.90;;;;;;5003873;28;20441;-61
2023/05/11 10:47:38;;;;;;;53.63;35.00;;;16.20;99.90;;;;;;5001379;28;20450;-61
2023/05/11 10:50:25;;;;;;;55.08;36.13;;;16.00;99.90;;;;;;4992078;28;20091;-60
2023/05/11 10:53:16;;;;;;;56.08;35.45;;;16.00;99.90;;;;;;4998965;28;20042;-61
2023/05/11 10:55:56;;;;;;;55.17;34.95;;;15.80;99.90;;;;;;4994671;28;20048;-60
2023/05/11 10:58:47;;;;;;;56.33;33.63;;;16.20;99.90;;;;;;5001476;28;20755;-61
2023/05/11 11:01:40;;;;;;;52.28;32.92;;;16.00;99.90;;;;;;4996767;28;20057;-61
2023/05/11 11:04:08;;;;;;;46.88;32.90;;;17.70;99.90;;;;;;4995912;28;20088;-61
2023/05/11 11:06:43;;;;;;;47.72;33.15;;;16.30;99.90;;;;;;5000573;28;20038;-61
2023/05/11 11:09:12;;;;;;;46.10;32.72;;;16.40;99.90;;;;;;4998852;28;20761;-61
2023/05/11 11:11:44;;;;;;;45.65;32.05;;;16.50;99.90;;;;;;4995822;28;20061;-60
2023/05/11 11:14:11;;;;;;;46.22;32.80;;;16.60;99.90;;;;;;5001453;28;20054;-60
2023/05/11 11:16:37;;;;;;;46.50;31.35;;;16.80;99.90;;;;;;4996666;28;20038;-60
2023/05/11 11:19:30;;;;;;;48.35;31.55;;;17.00;99.90;;;;;;4999782;28;20076;-61
2023/05/11 11:22:00;;;;;;;43.45;29.65;;;17.20;99.90;;;;;;5001149;28;20030;-60
2023/05/11 11:24:37;;;;;;;49.38;31.23;;;17.20;60.20;;;;;;4998071;28;20103;-61
2023/05/11 11:27:04;;;;;;;45.80;31.17;;;17.10;99.90;;;;;;4997327;28;20069;-60
2023/05/11 11:29:30;;;;;;;47.90;31.48;;;17.30;99.90;;;;;;5001915;28;20046;-61
2023/05/11 11:32:23;;;;;;;40.15;28.83;;;17.40;99.90;;;;;;5001928;28;20030;-61
2023/05/11 11:34:50;;;;;;;42.72;29.67;;;17.40;99.90;;;;;;4994745;28;20533;-61
2023/05/11 11:37:17;;;;;;;44.90;31.42;;;17.50;99.90;;;;;;4995210;28;20758;-60
2023/05/11 11:39:42;;;;;;;32.97;25.52;;;17.70;99.90;;;;;;5002201;28;20643;-61
2023/05/11 11:42:14;;;;;;;33.20;25.25;;;17.40;99.90;;;;;;5003963;28;20030;-60
2023/05/11 11:44:41;;;;;;;38.17;25.08;;;17.20;99.90;;;;;;4994427;28;20627;-61
2023/05/11 11:47:12;;;;;;;34.97;25.15;;;17.30;99.90;;;;;;5002235;28;20062;-60
2023/05/11 11:49:38;;;;;;;38.13;25.77;;;17.60;99.90;;;;;;4996899;28;20038;-60
2023/05/11 11:52:07;;;;;;;38.17;28.20;;;17.60;99.90;;;;;;4996389;28;20643;-60
2023/05/11 11:54:40;;;;;;;37.33;27.15;;;17.70;99.90;;;;;;4989414;28;20041;-60
2023/05/11 11:57:33;;;;;;;32.70;26.30;;;17.60;99.90;;;;;;5000585;28;20553;-60
2023/05/11 12:00:04;;;;;;;39.33;24.85;;;17.70;99.90;;;;;;5002042;28;20608;-60
2023/05/11 12:02:30;;;;;;;32.03;23.27;;;17.60;99.90;;;;;;4997193;28;20029;-60
2023/05/11 12:04:59;;;;;;;34.00;22.88;;;17.70;99.90;;;;;;4993774;28;20030;-60
2023/05/11 12:07:26;;;;;;;35.38;25.38;;;17.90;99.90;;;;;;4985046;28;20562;-60
2023/05/11 12:09:52;;;;;;;35.63;25.42;;;17.50;99.90;;;;;;5002850;28;20103;-60
2023/05/11 12:12:19;;;;;;;33.60;24.88;;;17.40;99.90;;;;;;5000065;28;20046;-60
2023/05/11 12:14:49;;;;;;;31.35;22.65;;;17.60;99.90;;;;;;4986160;28;20039;-60
2023/05/11 12:17:23;;;;;;;36.65;25.30;;;17.20;99.90;;;;;;4996060;28;20136;-60
2023/05/11 12:19:48;;;;;;;36.53;25.13;;;17.20;99.90;;;;;;5002077;28;20318;-60
2023/05/11 12:22:21;;;;;;;34.10;24.80;;;17.50;99.90;;;;;;5008252;28;20580;-60
2023/05/11 12:24:46;;;;;;;32.73;23.97;;;17.60;99.90;;;;;;4997748;28;20657;-61
2023/05/11 12:27:13;;;;;;;33.00;23.10;;;17.50;99.90;;;;;;5000520;28;20034;-60
2023/05/11 12:29:40;;;;;;;30.10;22.63;;;17.60;99.90;;;;;;4997562;28;20553;-60
2023/05/11 12:32:11;;;;;;;35.53;23.30;;;17.60;99.90;;;;;;5005433;28;20439;-61